Terminal Aerodrome Forecast
Issued by NWS

Home | Current Version | Previous Version | Text Only | Print | Product List | Glossary On
Versions: 1 2 3 4 5 6 7 8 9 10 11 12 13 14 15 16 17 18 19 20
000
FTUS43 KDDC 200805 AAA
TAFGCK
TAF AMD
KGCK 200805Z 2008/2106 32016G23KT P6SM BKN013 OVC028
     FM201100 32012G19KT P6SM BKN035
     FM201800 32014G24KT P6SM SCT050
     FM210000 36006KT P6SM SKC=

USA.gov is the U.S. government's official web portal to all federal, state and local government web resources and services.